sensor_id;sensor_type;location;lat;lon;timestamp;P1;durP1;ratioP1;P2;durP2;ratioP2
74849;SDS011;63397;47.480;19.238;2022-10-16T00:02:06;14.73;;;7.38;;
74849;SDS011;63397;47.480;19.238;2022-10-16T00:05:09;12.75;;;7.20;;
74849;SDS011;63397;47.480;19.238;2022-10-16T00:08:12;14.15;;;7.15;;
74849;SDS011;63397;47.480;19.238;2022-10-16T00:11:16;15.93;;;7.68;;
74849;SDS011;63397;47.480;19.238;2022-10-16T00:14:19;16.93;;;7.87;;
74849;SDS011;63397;47.480;19.238;2022-10-16T00:17:21;17.13;;;7.75;;
74849;SDS011;63397;47.480;19.238;2022-10-16T00:20:24;17.20;;;8.07;;
74849;SDS011;63397;47.480;19.238;2022-10-16T00:23:45;13.25;;;7.57;;
74849;SDS011;63397;47.480;19.238;2022-10-16T00:26:49;18.45;;;7.30;;
74849;SDS011;63397;47.480;19.238;2022-10-16T00:29:51;12.47;;;7.47;;
74849;SDS011;63397;47.480;19.238;2022-10-16T00:32:54;14.88;;;7.68;;
74849;SDS011;63397;47.480;19.238;2022-10-16T00:36:00;15.43;;;7.80;;
74849;SDS011;63397;47.480;19.238;2022-10-16T00:39:02;16.25;;;7.68;;
74849;SDS011;63397;47.480;19.238;2022-10-16T00:42:05;11.40;;;6.80;;
74849;SDS011;63397;47.480;19.238;2022-10-16T00:45:08;13.30;;;6.53;;
74849;SDS011;63397;47.480;19.238;2022-10-16T00:48:11;12.73;;;6.43;;
74849;SDS011;63397;47.480;19.238;2022-10-16T00:51:14;12.07;;;6.32;;
74849;SDS011;63397;47.480;19.238;2022-10-16T00:54:23;12.18;;;5.82;;
74849;SDS011;63397;47.480;19.238;2022-10-16T00:57:26;14.43;;;6.47;;
74849;SDS011;63397;47.480;19.238;2022-10-16T01:00:28;11.57;;;6.60;;
74849;SDS011;63397;47.480;19.238;2022-10-16T01:03:32;12.32;;;5.93;;
74849;SDS011;63397;47.480;19.238;2022-10-16T01:06:51;13.25;;;6.28;;
74849;SDS011;63397;47.480;19.238;2022-10-16T01:10:16;11.60;;;6.03;;
74849;SDS011;63397;47.480;19.238;2022-10-16T01:13:30;10.77;;;6.03;;
74849;SDS011;63397;47.480;19.238;2022-10-16T01:16:37;11.43;;;5.67;;
74849;SDS011;63397;47.480;19.238;2022-10-16T01:19:44;10.10;;;5.78;;
74849;SDS011;63397;47.480;19.238;2022-10-16T01:23:10;12.02;;;6.45;;
74849;SDS011;63397;47.480;19.238;2022-10-16T01:29:20;14.80;;;5.95;;
74849;SDS011;63397;47.480;19.238;2022-10-16T01:35:38;11.82;;;6.05;;
74849;SDS011;63397;47.480;19.238;2022-10-16T01:38:43;10.80;;;5.75;;
74849;SDS011;63397;47.480;19.238;2022-10-16T01:41:48;11.80;;;5.70;;
74849;SDS011;63397;47.480;19.238;2022-10-16T01:44:51;12.73;;;5.82;;
74849;SDS011;63397;47.480;19.238;2022-10-16T01:47:54;13.33;;;5.63;;
74849;SDS011;63397;47.480;19.238;2022-10-16T01:51:02;11.55;;;5.80;;
74849;SDS011;63397;47.480;19.238;2022-10-16T01:54:06;12.13;;;5.93;;
74849;SDS011;63397;47.480;19.238;2022-10-16T01:57:10;10.10;;;5.63;;
74849;SDS011;63397;47.480;19.238;2022-10-16T02:00:15;13.65;;;6.28;;
74849;SDS011;63397;47.480;19.238;2022-10-16T02:03:19;11.83;;;5.67;;
74849;SDS011;63397;47.480;19.238;2022-10-16T02:06:21;12.55;;;5.90;;
74849;SDS011;63397;47.480;19.238;2022-10-16T02:09:25;10.98;;;6.00;;
74849;SDS011;63397;47.480;19.238;2022-10-16T02:12:32;13.57;;;6.30;;
74849;SDS011;63397;47.480;19.238;2022-10-16T02:15:35;14.52;;;5.93;;
74849;SDS011;63397;47.480;19.238;2022-10-16T02:18:38;12.00;;;6.13;;
74849;SDS011;63397;47.480;19.238;2022-10-16T02:21:42;12.77;;;6.07;;
74849;SDS011;63397;47.480;19.238;2022-10-16T02:24:49;13.38;;;5.22;;
74849;SDS011;63397;47.480;19.238;2022-10-16T02:27:55;15.02;;;6.18;;
74849;SDS011;63397;47.480;19.238;2022-10-16T02:31:03;11.77;;;6.28;;
74849;SDS011;63397;47.480;19.238;2022-10-16T02:34:06;11.93;;;5.67;;
74849;SDS011;63397;47.480;19.238;2022-10-16T02:37:09;12.85;;;5.97;;
74849;SDS011;63397;47.480;19.238;2022-10-16T02:40:12;15.10;;;6.22;;
74849;SDS011;63397;47.480;19.238;2022-10-16T02:43:15;13.40;;;6.28;;
74849;SDS011;63397;47.480;19.238;2022-10-16T02:46:17;13.02;;;5.75;;
74849;SDS011;63397;47.480;19.238;2022-10-16T02:49:20;12.13;;;5.77;;
74849;SDS011;63397;47.480;19.238;2022-10-16T02:52:22;11.20;;;5.65;;
74849;SDS011;63397;47.480;19.238;2022-10-16T02:55:25;14.52;;;5.20;;
74849;SDS011;63397;47.480;19.238;2022-10-16T02:58:28;13.98;;;5.90;;
74849;SDS011;63397;47.480;19.238;2022-10-16T03:01:30;12.93;;;5.70;;
74849;SDS011;63397;47.480;19.238;2022-10-16T03:04:33;13.37;;;5.97;;
74849;SDS011;63397;47.480;19.238;2022-10-16T03:07:35;13.93;;;5.97;;
74849;SDS011;63397;47.480;19.238;2022-10-16T03:10:37;12.60;;;5.90;;
74849;SDS011;63397;47.480;19.238;2022-10-16T03:13:39;14.52;;;5.75;;
74849;SDS011;63397;47.480;19.238;2022-10-16T03:16:41;13.52;;;6.03;;
74849;SDS011;63397;47.480;19.238;2022-10-16T03:19:44;13.13;;;5.83;;
74849;SDS011;63397;47.480;19.238;2022-10-16T03:22:46;13.73;;;6.32;;
74849;SDS011;63397;47.480;19.238;2022-10-16T03:25:48;13.57;;;5.97;;
74849;SDS011;63397;47.480;19.238;2022-10-16T03:28:50;11.90;;;5.53;;
74849;SDS011;63397;47.480;19.238;2022-10-16T03:31:53;11.07;;;5.55;;
74849;SDS011;63397;47.480;19.238;2022-10-16T03:34:55;12.57;;;5.57;;
74849;SDS011;63397;47.480;19.238;2022-10-16T03:37:58;12.55;;;5.90;;
74849;SDS011;63397;47.480;19.238;2022-10-16T03:41:00;12.23;;;5.97;;
74849;SDS011;63397;47.480;19.238;2022-10-16T03:44:03;12.85;;;6.20;;
74849;SDS011;63397;47.480;19.238;2022-10-16T03:47:05;12.50;;;6.40;;
74849;SDS011;63397;47.480;19.238;2022-10-16T03:50:07;12.90;;;5.93;;
74849;SDS011;63397;47.480;19.238;2022-10-16T03:53:10;13.05;;;5.90;;
74849;SDS011;63397;47.480;19.238;2022-10-16T03:56:12;13.68;;;6.40;;
74849;SDS011;63397;47.480;19.238;2022-10-16T03:59:14;13.40;;;6.38;;
74849;SDS011;63397;47.480;19.238;2022-10-16T04:02:16;13.10;;;6.10;;
74849;SDS011;63397;47.480;19.238;2022-10-16T04:05:18;13.90;;;6.27;;
74849;SDS011;63397;47.480;19.238;2022-10-16T04:08:20;15.63;;;6.50;;
74849;SDS011;63397;47.480;19.238;2022-10-16T04:11:22;14.10;;;6.15;;
74849;SDS011;63397;47.480;19.238;2022-10-16T04:14:25;15.52;;;6.50;;
74849;SDS011;63397;47.480;19.238;2022-10-16T04:17:27;14.02;;;5.90;;
74849;SDS011;63397;47.480;19.238;2022-10-16T04:20:30;15.63;;;6.73;;
74849;SDS011;63397;47.480;19.238;2022-10-16T04:23:32;12.45;;;5.93;;
74849;SDS011;63397;47.480;19.238;2022-10-16T04:26:34;13.52;;;6.80;;
74849;SDS011;63397;47.480;19.238;2022-10-16T04:29:36;13.70;;;6.25;;
74849;SDS011;63397;47.480;19.238;2022-10-16T04:32:39;14.13;;;6.65;;
74849;SDS011;63397;47.480;19.238;2022-10-16T04:35:41;15.80;;;6.87;;
74849;SDS011;63397;47.480;19.238;2022-10-16T04:38:43;14.77;;;6.55;;
74849;SDS011;63397;47.480;19.238;2022-10-16T04:41:45;14.70;;;6.60;;
74849;SDS011;63397;47.480;19.238;2022-10-16T04:44:48;15.05;;;6.90;;
74849;SDS011;63397;47.480;19.238;2022-10-16T04:47:50;16.40;;;7.15;;
74849;SDS011;63397;47.480;19.238;2022-10-16T04:50:52;15.77;;;7.10;;
74849;SDS011;63397;47.480;19.238;2022-10-16T04:53:56;19.60;;;8.13;;
74849;SDS011;63397;47.480;19.238;2022-10-16T04:56:58;18.27;;;8.38;;
74849;SDS011;63397;47.480;19.238;2022-10-16T05:00:00;16.98;;;7.35;;
74849;SDS011;63397;47.480;19.238;2022-10-16T05:03:03;15.40;;;7.75;;
74849;SDS011;63397;47.480;19.238;2022-10-16T05:06:08;19.13;;;8.07;;
74849;SDS011;63397;47.480;19.238;2022-10-16T05:09:11;15.10;;;7.35;;
74849;SDS011;63397;47.480;19.238;2022-10-16T05:12:13;18.50;;;8.35;;
74849;SDS011;63397;47.480;19.238;2022-10-16T05:15:16;17.83;;;7.90;;
74849;SDS011;63397;47.480;19.238;2022-10-16T05:18:18;19.00;;;8.45;;
74849;SDS011;63397;47.480;19.238;2022-10-16T05:21:20;16.53;;;7.37;;
74849;SDS011;63397;47.480;19.238;2022-10-16T05:24:22;18.00;;;8.13;;
74849;SDS011;63397;47.480;19.238;2022-10-16T05:27:25;20.25;;;8.05;;
74849;SDS011;63397;47.480;19.238;2022-10-16T05:30:27;18.05;;;8.43;;
74849;SDS011;63397;47.480;19.238;2022-10-16T05:33:29;19.02;;;8.57;;
74849;SDS011;63397;47.480;19.238;2022-10-16T05:36:32;19.07;;;7.90;;
74849;SDS011;63397;47.480;19.238;2022-10-16T05:39:35;20.75;;;9.70;;
74849;SDS011;63397;47.480;19.238;2022-10-16T05:42:38;24.60;;;9.30;;
74849;SDS011;63397;47.480;19.238;2022-10-16T05:45:41;21.88;;;9.50;;
74849;SDS011;63397;47.480;19.238;2022-10-16T05:48:43;21.23;;;9.32;;
74849;SDS011;63397;47.480;19.238;2022-10-16T05:51:46;17.80;;;8.67;;
74849;SDS011;63397;47.480;19.238;2022-10-16T05:54:48;18.85;;;8.80;;
74849;SDS011;63397;47.480;19.238;2022-10-16T05:57:53;21.25;;;9.75;;
74849;SDS011;63397;47.480;19.238;2022-10-16T06:00:56;19.80;;;9.52;;
74849;SDS011;63397;47.480;19.238;2022-10-16T06:03:59;18.10;;;9.35;;
74849;SDS011;63397;47.480;19.238;2022-10-16T06:07:01;21.43;;;9.17;;
74849;SDS011;63397;47.480;19.238;2022-10-16T06:10:04;16.45;;;8.60;;
74849;SDS011;63397;47.480;19.238;2022-10-16T06:13:06;15.68;;;8.60;;
74849;SDS011;63397;47.480;19.238;2022-10-16T06:16:09;15.48;;;7.90;;
74849;SDS011;63397;47.480;19.238;2022-10-16T06:19:12;17.80;;;8.02;;
74849;SDS011;63397;47.480;19.238;2022-10-16T06:22:14;18.80;;;8.13;;
74849;SDS011;63397;47.480;19.238;2022-10-16T06:25:16;16.40;;;7.68;;
74849;SDS011;63397;47.480;19.238;2022-10-16T06:28:18;15.38;;;7.80;;
74849;SDS011;63397;47.480;19.238;2022-10-16T06:31:21;17.05;;;7.78;;
74849;SDS011;63397;47.480;19.238;2022-10-16T06:34:23;18.10;;;8.45;;
74849;SDS011;63397;47.480;19.238;2022-10-16T06:37:26;15.23;;;7.50;;
74849;SDS011;63397;47.480;19.238;2022-10-16T06:40:29;14.80;;;7.57;;
74849;SDS011;63397;47.480;19.238;2022-10-16T06:43:31;19.63;;;7.10;;
74849;SDS011;63397;47.480;19.238;2022-10-16T06:46:39;13.00;;;6.57;;
74849;SDS011;63397;47.480;19.238;2022-10-16T06:49:41;13.38;;;6.72;;
74849;SDS011;63397;47.480;19.238;2022-10-16T06:52:43;14.00;;;7.20;;
74849;SDS011;63397;47.480;19.238;2022-10-16T06:55:52;13.35;;;6.60;;
74849;SDS011;63397;47.480;19.238;2022-10-16T06:58:54;15.70;;;6.82;;
74849;SDS011;63397;47.480;19.238;2022-10-16T07:01:56;15.98;;;7.38;;
74849;SDS011;63397;47.480;19.238;2022-10-16T07:04:58;13.13;;;6.55;;
74849;SDS011;63397;47.480;19.238;2022-10-16T07:08:01;13.97;;;7.17;;
74849;SDS011;63397;47.480;19.238;2022-10-16T07:11:04;18.50;;;7.60;;
74849;SDS011;63397;47.480;19.238;2022-10-16T07:14:14;13.95;;;6.95;;
74849;SDS011;63397;47.480;19.238;2022-10-16T07:17:17;13.45;;;6.95;;
74849;SDS011;63397;47.480;19.238;2022-10-16T07:20:20;15.93;;;7.05;;
74849;SDS011;63397;47.480;19.238;2022-10-16T07:23:22;13.67;;;6.93;;
74849;SDS011;63397;47.480;19.238;2022-10-16T07:26:25;16.73;;;7.00;;
74849;SDS011;63397;47.480;19.238;2022-10-16T07:29:28;11.80;;;6.30;;
74849;SDS011;63397;47.480;19.238;2022-10-16T07:32:31;14.43;;;6.88;;
74849;SDS011;63397;47.480;19.238;2022-10-16T07:35:33;14.27;;;6.82;;
74849;SDS011;63397;47.480;19.238;2022-10-16T07:38:35;14.57;;;7.03;;
74849;SDS011;63397;47.480;19.238;2022-10-16T07:41:37;13.45;;;6.28;;
74849;SDS011;63397;47.480;19.238;2022-10-16T07:44:40;11.48;;;6.55;;
74849;SDS011;63397;47.480;19.238;2022-10-16T07:47:42;14.75;;;6.50;;
74849;SDS011;63397;47.480;19.238;2022-10-16T07:50:45;17.23;;;6.80;;
74849;SDS011;63397;47.480;19.238;2022-10-16T07:53:48;14.10;;;6.60;;
74849;SDS011;63397;47.480;19.238;2022-10-16T07:56:50;11.88;;;6.10;;
74849;SDS011;63397;47.480;19.238;2022-10-16T07:59:52;13.80;;;6.78;;
74849;SDS011;63397;47.480;19.238;2022-10-16T08:02:56;14.38;;;6.95;;
74849;SDS011;63397;47.480;19.238;2022-10-16T08:05:59;11.63;;;6.22;;
74849;SDS011;63397;47.480;19.238;2022-10-16T08:09:02;12.73;;;6.40;;
74849;SDS011;63397;47.480;19.238;2022-10-16T08:12:04;11.85;;;6.85;;
74849;SDS011;63397;47.480;19.238;2022-10-16T08:15:07;14.57;;;6.55;;
74849;SDS011;63397;47.480;19.238;2022-10-16T08:18:09;13.18;;;6.68;;
74849;SDS011;63397;47.480;19.238;2022-10-16T08:21:13;12.40;;;6.60;;
74849;SDS011;63397;47.480;19.238;2022-10-16T08:24:22;12.07;;;6.13;;
74849;SDS011;63397;47.480;19.238;2022-10-16T08:27:24;12.43;;;6.50;;
74849;SDS011;63397;47.480;19.238;2022-10-16T08:30:27;12.05;;;6.25;;
74849;SDS011;63397;47.480;19.238;2022-10-16T08:33:29;12.23;;;6.47;;
74849;SDS011;63397;47.480;19.238;2022-10-16T08:36:31;13.95;;;5.90;;
74849;SDS011;63397;47.480;19.238;2022-10-16T08:39:33;13.40;;;6.33;;
74849;SDS011;63397;47.480;19.238;2022-10-16T08:46:10;11.38;;;5.82;;
74849;SDS011;63397;47.480;19.238;2022-10-16T08:49:17;13.52;;;6.32;;
74849;SDS011;63397;47.480;19.238;2022-10-16T08:52:19;11.18;;;5.80;;
74849;SDS011;63397;47.480;19.238;2022-10-16T08:55:37;11.53;;;6.00;;
74849;SDS011;63397;47.480;19.238;2022-10-16T08:58:40;11.50;;;6.05;;
74849;SDS011;63397;47.480;19.238;2022-10-16T09:01:44;15.07;;;6.65;;
74849;SDS011;63397;47.480;19.238;2022-10-16T09:08:28;14.40;;;6.38;;
74849;SDS011;63397;47.480;19.238;2022-10-16T09:18:37;11.43;;;6.18;;
74849;SDS011;63397;47.480;19.238;2022-10-16T09:21:29;11.20;;;6.30;;
74849;SDS011;63397;47.480;19.238;2022-10-16T09:24:33;15.30;;;6.03;;
74849;SDS011;63397;47.480;19.238;2022-10-16T09:27:35;10.63;;;6.00;;
74849;SDS011;63397;47.480;19.238;2022-10-16T09:30:38;13.23;;;6.28;;
74849;SDS011;63397;47.480;19.238;2022-10-16T09:33:41;11.32;;;5.95;;
74849;SDS011;63397;47.480;19.238;2022-10-16T09:36:44;11.50;;;6.57;;
74849;SDS011;63397;47.480;19.238;2022-10-16T09:39:48;12.15;;;5.78;;
74849;SDS011;63397;47.480;19.238;2022-10-16T09:42:52;13.30;;;6.30;;
74849;SDS011;63397;47.480;19.238;2022-10-16T09:49:05;14.70;;;6.60;;
74849;SDS011;63397;47.480;19.238;2022-10-16T09:52:14;14.20;;;6.50;;
74849;SDS011;63397;47.480;19.238;2022-10-16T09:55:17;13.10;;;6.60;;
74849;SDS011;63397;47.480;19.238;2022-10-16T09:58:21;10.87;;;6.27;;
74849;SDS011;63397;47.480;19.238;2022-10-16T10:01:27;11.88;;;6.10;;
74849;SDS011;63397;47.480;19.238;2022-10-16T10:04:41;11.25;;;6.28;;
74849;SDS011;63397;47.480;19.238;2022-10-16T10:07:46;12.23;;;6.10;;
74849;SDS011;63397;47.480;19.238;2022-10-16T10:10:55;11.55;;;5.50;;
74849;SDS011;63397;47.480;19.238;2022-10-16T10:14:05;10.27;;;5.40;;
74849;SDS011;63397;47.480;19.238;2022-10-16T10:17:12;11.55;;;6.13;;
74849;SDS011;63397;47.480;19.238;2022-10-16T10:20:25;11.70;;;6.15;;
74849;SDS011;63397;47.480;19.238;2022-10-16T10:23:28;8.77;;;5.28;;
74849;SDS011;63397;47.480;19.238;2022-10-16T10:26:31;10.45;;;5.25;;
74849;SDS011;63397;47.480;19.238;2022-10-16T10:29:47;11.40;;;5.57;;
74849;SDS011;63397;47.480;19.238;2022-10-16T10:39:23;12.00;;;5.63;;
74849;SDS011;63397;47.480;19.238;2022-10-16T10:42:29;10.63;;;5.63;;
74849;SDS011;63397;47.480;19.238;2022-10-16T10:46:16;9.57;;;5.17;;
74849;SDS011;63397;47.480;19.238;2022-10-16T10:49:02;8.05;;;5.10;;
74849;SDS011;63397;47.480;19.238;2022-10-16T10:52:30;10.70;;;5.40;;
74849;SDS011;63397;47.480;19.238;2022-10-16T10:55:40;10.52;;;5.53;;
74849;SDS011;63397;47.480;19.238;2022-10-16T11:01:54;10.17;;;5.23;;
74849;SDS011;63397;47.480;19.238;2022-10-16T11:05:09;9.20;;;5.05;;
74849;SDS011;63397;47.480;19.238;2022-10-16T11:14:56;9.82;;;5.25;;
74849;SDS011;63397;47.480;19.238;2022-10-16T11:18:07;11.67;;;5.13;;
74849;SDS011;63397;47.480;19.238;2022-10-16T11:21:14;8.70;;;4.72;;
74849;SDS011;63397;47.480;19.238;2022-10-16T11:24:22;8.95;;;4.90;;
74849;SDS011;63397;47.480;19.238;2022-10-16T11:30:47;8.88;;;4.50;;
74849;SDS011;63397;47.480;19.238;2022-10-16T11:34:03;9.87;;;4.50;;
74849;SDS011;63397;47.480;19.238;2022-10-16T11:37:10;10.00;;;4.72;;
74849;SDS011;63397;47.480;19.238;2022-10-16T11:40:19;8.57;;;4.68;;
74849;SDS011;63397;47.480;19.238;2022-10-16T11:43:28;10.13;;;4.80;;
74849;SDS011;63397;47.480;19.238;2022-10-16T11:46:32;8.55;;;5.47;;
74849;SDS011;63397;47.480;19.238;2022-10-16T11:49:34;9.00;;;4.80;;
74849;SDS011;63397;47.480;19.238;2022-10-16T11:55:52;9.60;;;4.47;;
74849;SDS011;63397;47.480;19.238;2022-10-16T11:58:59;9.80;;;4.53;;
74849;SDS011;63397;47.480;19.238;2022-10-16T12:08:29;11.25;;;4.40;;
74849;SDS011;63397;47.480;19.238;2022-10-16T12:11:33;8.95;;;4.13;;
74849;SDS011;63397;47.480;19.238;2022-10-16T12:14:37;8.52;;;4.00;;
74849;SDS011;63397;47.480;19.238;2022-10-16T12:17:59;8.23;;;4.30;;
74849;SDS011;63397;47.480;19.238;2022-10-16T12:21:01;7.20;;;4.27;;
74849;SDS011;63397;47.480;19.238;2022-10-16T12:27:30;7.68;;;4.00;;
74849;SDS011;63397;47.480;19.238;2022-10-16T12:30:34;7.13;;;3.70;;
74849;SDS011;63397;47.480;19.238;2022-10-16T12:33:40;6.85;;;3.85;;
74849;SDS011;63397;47.480;19.238;2022-10-16T12:36:43;7.27;;;3.73;;
74849;SDS011;63397;47.480;19.238;2022-10-16T12:39:46;7.68;;;4.13;;
74849;SDS011;63397;47.480;19.238;2022-10-16T12:42:49;6.63;;;3.85;;
74849;SDS011;63397;47.480;19.238;2022-10-16T12:46:05;6.90;;;3.63;;
74849;SDS011;63397;47.480;19.238;2022-10-16T12:52:26;8.23;;;4.10;;
74849;SDS011;63397;47.480;19.238;2022-10-16T12:55:32;7.75;;;4.10;;
74849;SDS011;63397;47.480;19.238;2022-10-16T13:08:44;6.53;;;3.83;;
74849;SDS011;63397;47.480;19.238;2022-10-16T13:24:11;6.50;;;4.07;;
74849;SDS011;63397;47.480;19.238;2022-10-16T13:30:30;8.30;;;3.70;;
74849;SDS011;63397;47.480;19.238;2022-10-16T13:33:40;7.75;;;3.95;;
74849;SDS011;63397;47.480;19.238;2022-10-16T13:36:48;7.47;;;3.80;;
74849;SDS011;63397;47.480;19.238;2022-10-16T13:40:09;9.73;;;4.10;;
74849;SDS011;63397;47.480;19.238;2022-10-16T13:43:19;6.78;;;3.83;;
74849;SDS011;63397;47.480;19.238;2022-10-16T13:46:23;8.50;;;3.67;;
74849;SDS011;63397;47.480;19.238;2022-10-16T13:49:25;7.85;;;3.95;;
74849;SDS011;63397;47.480;19.238;2022-10-16T13:52:27;7.57;;;3.63;;
74849;SDS011;63397;47.480;19.238;2022-10-16T13:55:30;7.30;;;3.80;;
74849;SDS011;63397;47.480;19.238;2022-10-16T13:58:33;8.48;;;3.92;;
74849;SDS011;63397;47.480;19.238;2022-10-16T14:04:38;7.03;;;3.72;;
74849;SDS011;63397;47.480;19.238;2022-10-16T14:07:40;6.80;;;3.60;;
74849;SDS011;63397;47.480;19.238;2022-10-16T14:10:46;7.00;;;3.60;;
74849;SDS011;63397;47.480;19.238;2022-10-16T14:13:49;7.63;;;3.60;;
74849;SDS011;63397;47.480;19.238;2022-10-16T14:16:52;6.13;;;3.65;;
74849;SDS011;63397;47.480;19.238;2022-10-16T14:19:55;9.20;;;4.00;;
74849;SDS011;63397;47.480;19.238;2022-10-16T14:23:04;7.47;;;3.78;;
74849;SDS011;63397;47.480;19.238;2022-10-16T14:26:21;10.10;;;4.53;;
74849;SDS011;63397;47.480;19.238;2022-10-16T14:29:24;8.05;;;4.13;;
74849;SDS011;63397;47.480;19.238;2022-10-16T14:32:27;7.53;;;4.10;;
74849;SDS011;63397;47.480;19.238;2022-10-16T14:35:37;7.50;;;3.80;;
74849;SDS011;63397;47.480;19.238;2022-10-16T14:38:41;7.88;;;3.78;;
74849;SDS011;63397;47.480;19.238;2022-10-16T14:41:45;8.87;;;3.83;;
74849;SDS011;63397;47.480;19.238;2022-10-16T14:44:48;7.72;;;4.07;;
74849;SDS011;63397;47.480;19.238;2022-10-16T14:47:54;7.97;;;3.60;;
74849;SDS011;63397;47.480;19.238;2022-10-16T14:50:56;6.68;;;3.63;;
74849;SDS011;63397;47.480;19.238;2022-10-16T14:53:59;8.13;;;3.85;;
74849;SDS011;63397;47.480;19.238;2022-10-16T14:57:01;6.47;;;3.53;;
74849;SDS011;63397;47.480;19.238;2022-10-16T15:00:08;8.45;;;3.90;;
74849;SDS011;63397;47.480;19.238;2022-10-16T15:03:11;8.18;;;4.30;;
74849;SDS011;63397;47.480;19.238;2022-10-16T15:06:15;9.35;;;4.18;;
74849;SDS011;63397;47.480;19.238;2022-10-16T15:09:17;10.85;;;4.10;;
74849;SDS011;63397;47.480;19.238;2022-10-16T15:12:19;9.30;;;4.40;;
74849;SDS011;63397;47.480;19.238;2022-10-16T15:18:24;10.73;;;3.85;;
74849;SDS011;63397;47.480;19.238;2022-10-16T15:21:28;6.70;;;3.70;;
74849;SDS011;63397;47.480;19.238;2022-10-16T15:24:30;7.75;;;4.47;;
74849;SDS011;63397;47.480;19.238;2022-10-16T15:27:33;10.80;;;4.20;;
74849;SDS011;63397;47.480;19.238;2022-10-16T15:30:42;7.75;;;4.10;;
74849;SDS011;63397;47.480;19.238;2022-10-16T15:33:49;10.25;;;4.65;;
74849;SDS011;63397;47.480;19.238;2022-10-16T15:36:55;9.02;;;4.32;;
74849;SDS011;63397;47.480;19.238;2022-10-16T15:39:59;9.15;;;4.78;;
74849;SDS011;63397;47.480;19.238;2022-10-16T15:43:02;9.80;;;4.97;;
74849;SDS011;63397;47.480;19.238;2022-10-16T15:46:05;11.27;;;5.57;;
74849;SDS011;63397;47.480;19.238;2022-10-16T15:49:08;12.50;;;5.70;;
74849;SDS011;63397;47.480;19.238;2022-10-16T15:52:11;13.13;;;6.05;;
74849;SDS011;63397;47.480;19.238;2022-10-16T15:55:14;13.05;;;6.35;;
74849;SDS011;63397;47.480;19.238;2022-10-16T15:58:16;14.47;;;7.03;;
74849;SDS011;63397;47.480;19.238;2022-10-16T16:01:19;17.30;;;7.07;;
74849;SDS011;63397;47.480;19.238;2022-10-16T16:04:22;14.48;;;6.88;;
74849;SDS011;63397;47.480;19.238;2022-10-16T16:07:44;15.10;;;7.90;;
74849;SDS011;63397;47.480;19.238;2022-10-16T16:10:56;17.48;;;7.97;;
74849;SDS011;63397;47.480;19.238;2022-10-16T16:13:58;15.77;;;7.53;;
74849;SDS011;63397;47.480;19.238;2022-10-16T16:17:01;16.42;;;7.85;;
74849;SDS011;63397;47.480;19.238;2022-10-16T16:20:04;13.77;;;7.03;;
74849;SDS011;63397;47.480;19.238;2022-10-16T16:23:06;16.30;;;7.28;;
74849;SDS011;63397;47.480;19.238;2022-10-16T16:26:10;13.63;;;6.97;;
74849;SDS011;63397;47.480;19.238;2022-10-16T16:29:13;13.17;;;6.50;;
74849;SDS011;63397;47.480;19.238;2022-10-16T16:32:16;15.05;;;7.15;;
74849;SDS011;63397;47.480;19.238;2022-10-16T16:35:18;11.95;;;6.30;;
74849;SDS011;63397;47.480;19.238;2022-10-16T16:38:20;15.02;;;7.25;;
74849;SDS011;63397;47.480;19.238;2022-10-16T16:41:23;16.52;;;7.15;;
74849;SDS011;63397;47.480;19.238;2022-10-16T16:44:27;17.80;;;6.90;;
74849;SDS011;63397;47.480;19.238;2022-10-16T16:47:29;14.30;;;7.07;;
74849;SDS011;63397;47.480;19.238;2022-10-16T16:50:35;15.60;;;7.70;;
74849;SDS011;63397;47.480;19.238;2022-10-16T16:53:38;16.50;;;7.05;;
74849;SDS011;63397;47.480;19.238;2022-10-16T16:56:41;15.13;;;7.15;;
74849;SDS011;63397;47.480;19.238;2022-10-16T16:59:46;15.40;;;8.07;;
74849;SDS011;63397;47.480;19.238;2022-10-16T17:02:49;18.73;;;8.20;;
74849;SDS011;63397;47.480;19.238;2022-10-16T17:05:55;19.08;;;8.38;;
74849;SDS011;63397;47.480;19.238;2022-10-16T17:08:57;18.95;;;7.70;;
74849;SDS011;63397;47.480;19.238;2022-10-16T17:12:00;18.65;;;7.78;;
74849;SDS011;63397;47.480;19.238;2022-10-16T17:15:02;19.27;;;8.73;;
74849;SDS011;63397;47.480;19.238;2022-10-16T17:18:05;18.23;;;9.00;;
74849;SDS011;63397;47.480;19.238;2022-10-16T17:21:07;20.50;;;8.98;;
74849;SDS011;63397;47.480;19.238;2022-10-16T17:24:10;20.63;;;9.27;;
74849;SDS011;63397;47.480;19.238;2022-10-16T17:27:12;18.88;;;9.63;;
74849;SDS011;63397;47.480;19.238;2022-10-16T17:30:15;21.43;;;10.13;;
74849;SDS011;63397;47.480;19.238;2022-10-16T17:33:17;24.02;;;10.73;;
74849;SDS011;63397;47.480;19.238;2022-10-16T17:36:19;25.50;;;11.48;;
74849;SDS011;63397;47.480;19.238;2022-10-16T17:39:22;22.67;;;10.23;;
74849;SDS011;63397;47.480;19.238;2022-10-16T17:42:24;25.10;;;11.25;;
74849;SDS011;63397;47.480;19.238;2022-10-16T17:45:27;25.87;;;11.50;;
74849;SDS011;63397;47.480;19.238;2022-10-16T17:48:30;24.33;;;10.85;;
74849;SDS011;63397;47.480;19.238;2022-10-16T17:51:32;23.58;;;10.77;;
74849;SDS011;63397;47.480;19.238;2022-10-16T17:54:34;23.88;;;11.13;;
74849;SDS011;63397;47.480;19.238;2022-10-16T17:57:37;21.02;;;10.23;;
74849;SDS011;63397;47.480;19.238;2022-10-16T18:00:40;22.90;;;10.23;;
74849;SDS011;63397;47.480;19.238;2022-10-16T18:03:42;20.05;;;10.45;;
74849;SDS011;63397;47.480;19.238;2022-10-16T18:06:45;22.05;;;10.95;;
74849;SDS011;63397;47.480;19.238;2022-10-16T18:09:48;24.25;;;11.77;;
74849;SDS011;63397;47.480;19.238;2022-10-16T18:13:10;21.85;;;10.25;;
74849;SDS011;63397;47.480;19.238;2022-10-16T18:16:13;23.60;;;12.03;;
74849;SDS011;63397;47.480;19.238;2022-10-16T18:19:16;22.05;;;11.18;;
74849;SDS011;63397;47.480;19.238;2022-10-16T18:22:18;22.77;;;10.70;;
74849;SDS011;63397;47.480;19.238;2022-10-16T18:25:20;22.17;;;11.60;;
74849;SDS011;63397;47.480;19.238;2022-10-16T18:28:22;25.27;;;11.82;;
74849;SDS011;63397;47.480;19.238;2022-10-16T18:31:25;24.77;;;11.37;;
74849;SDS011;63397;47.480;19.238;2022-10-16T18:34:27;26.40;;;11.18;;
74849;SDS011;63397;47.480;19.238;2022-10-16T18:37:30;26.63;;;11.70;;
74849;SDS011;63397;47.480;19.238;2022-10-16T18:40:34;24.35;;;12.07;;
74849;SDS011;63397;47.480;19.238;2022-10-16T18:43:36;24.00;;;11.38;;
74849;SDS011;63397;47.480;19.238;2022-10-16T18:46:39;23.23;;;11.20;;
74849;SDS011;63397;47.480;19.238;2022-10-16T18:49:41;25.90;;;12.18;;
74849;SDS011;63397;47.480;19.238;2022-10-16T18:52:48;21.23;;;10.98;;
74849;SDS011;63397;47.480;19.238;2022-10-16T18:55:51;26.10;;;11.20;;
74849;SDS011;63397;47.480;19.238;2022-10-16T18:58:54;25.08;;;10.93;;
74849;SDS011;63397;47.480;19.238;2022-10-16T19:02:00;23.77;;;10.77;;
74849;SDS011;63397;47.480;19.238;2022-10-16T19:05:02;21.25;;;10.10;;
74849;SDS011;63397;47.480;19.238;2022-10-16T19:08:07;25.63;;;11.10;;
74849;SDS011;63397;47.480;19.238;2022-10-16T19:11:13;24.25;;;10.90;;
74849;SDS011;63397;47.480;19.238;2022-10-16T19:14:16;22.45;;;10.70;;
74849;SDS011;63397;47.480;19.238;2022-10-16T19:17:18;23.67;;;10.77;;
74849;SDS011;63397;47.480;19.238;2022-10-16T19:20:20;24.95;;;10.80;;
74849;SDS011;63397;47.480;19.238;2022-10-16T19:23:23;24.27;;;11.32;;
74849;SDS011;63397;47.480;19.238;2022-10-16T19:26:25;28.70;;;12.10;;
74849;SDS011;63397;47.480;19.238;2022-10-16T19:29:28;21.25;;;10.57;;
74849;SDS011;63397;47.480;19.238;2022-10-16T19:32:31;23.30;;;10.83;;